Time;durP1;ratioP1;P1;durP2;ratioP2;P2;SDS_P1;SDS_P2;PMS_P1;PMS_P2;Temp;Humidity;BMP_temperature;BMP_pressure;BME280_temperature;BME280_humidity;BME280_pressure;Samples;Min_cycle;Max_cycle;Signal;HPM_P1;HPM_P2
2022/08/28 00:00:22;;;;;;;27.98;5.60;;;;;;;15.29;75.53;101943.59;5052224;28;20025;-76
2022/08/28 00:02:48;;;;;;;32.50;7.03;;;;;;;15.28;75.53;101948.19;5052956;28;20116;-76
2022/08/28 00:05:15;;;;;;;37.03;5.03;;;;;;;15.25;75.31;101940.41;5035771;28;20021;-77
2022/08/28 00:07:40;;;;;;;30.80;6.15;;;;;;;15.28;75.50;101941.91;5052379;28;20094;-74
2022/08/28 00:10:08;;;;;;;29.13;6.25;;;;;;;15.25;75.60;101947.72;5051732;28;20044;-77
2022/08/28 00:12:35;;;;;;;23.63;5.38;;;;;;;15.25;75.68;101947.72;5052358;28;20112;-76
2022/08/28 00:15:03;;;;;;;36.60;6.75;;;;;;;15.22;75.86;101950.78;5052019;28;20035;-75
2022/08/28 00:17:28;;;;;;;37.15;6.60;;;;;;;15.20;75.95;101953.69;5051869;28;20525;-75
2022/08/28 00:19:53;;;;;;;29.98;6.78;;;;;;;15.21;75.96;101947.22;5051629;28;20025;-75
2022/08/28 00:22:19;;;;;;;27.33;6.00;;;;;;;15.21;76.20;101958.06;5033603;28;20033;-76
2022/08/28 00:24:44;;;;;;;35.92;6.40;;;;;;;15.16;76.30;101955.06;5051652;28;20516;-76
2022/08/28 00:29:53;;;;;;;24.63;5.20;;;;;;;15.12;76.57;101953.78;5051914;28;20094;-76
2022/08/28 00:32:22;;;;;;;29.38;7.03;;;;;;;15.11;76.70;101949.38;5034039;28;20394;-75
2022/08/28 00:34:47;;;;;;;25.45;5.55;;;;;;;15.13;76.72;101953.56;5034979;28;20349;-75
2022/08/28 00:37:13;;;;;;;19.33;5.22;;;;;;;15.10;76.91;101956.66;5051644;28;20029;-76
2022/08/28 00:39:38;;;;;;;25.33;5.38;;;;;;;15.08;76.88;101953.28;5051445;28;20025;-75
2022/08/28 00:42:04;;;;;;;31.25;6.28;;;;;;;15.11;76.90;101968.34;5051769;28;20033;-76
2022/08/28 00:44:30;;;;;;;24.60;5.72;;;;;;;15.12;77.04;101959.19;5053039;28;20036;-75
2022/08/28 00:46:57;;;;;;;27.83;5.25;;;;;;;15.09;76.90;101959.56;5052128;28;20056;-76
2022/08/28 00:49:25;;;;;;;29.65;5.53;;;;;;;15.09;77.20;101960.41;5051391;28;20496;-76
2022/08/28 00:52:04;;;;;;;20.13;4.80;;;;;;;15.08;77.32;101964.13;5034646;28;20032;-76
2022/08/28 00:54:32;;;;;;;21.17;4.78;;;;;;;15.06;77.38;101966.22;5052257;28;20037;-75
2022/08/28 00:56:59;;;;;;;33.20;5.45;;;;;;;15.06;77.44;101963.50;5033522;28;20021;-76
2022/08/28 00:59:26;;;;;;;28.08;5.45;;;;;;;15.07;77.38;101959.75;5033427;28;20029;-76
2022/08/28 01:01:55;;;;;;;24.73;4.97;;;;;;;15.04;77.56;101960.13;5050806;28;20453;-76
2022/08/28 01:04:22;;;;;;;30.30;5.38;;;;;;;15.05;77.62;101961.78;5033699;28;20503;-76
2022/08/28 01:06:52;;;;;;;28.73;5.40;;;;;;;15.05;77.56;101964.50;5033171;28;20516;-75
2022/08/28 01:09:21;;;;;;;27.10;5.05;;;;;;;15.03;77.71;101960.28;5033565;28;20053;-75
2022/08/28 01:11:49;;;;;;;28.10;4.95;;;;;;;15.02;77.95;101962.16;5033122;28;20065;-76
2022/08/28 01:14:17;;;;;;;25.50;5.25;;;;;;;15.06;78.03;101960.78;5033066;28;20083;-75
2022/08/28 01:16:43;;;;;;;22.60;4.78;;;;;;;15.09;77.85;101960.41;5033152;28;20021;-76
2022/08/28 01:19:12;;;;;;;20.73;4.78;;;;;;;15.07;77.73;101948.06;5051138;28;20330;-76
2022/08/28 01:21:47;;;;;;;23.42;4.55;;;;;;;15.05;77.83;101948.25;5033191;28;20032;-76
2022/08/28 01:24:15;;;;;;;19.13;5.22;;;;;;;15.05;77.81;101956.38;5051267;28;20017;-77
2022/08/28 01:26:40;;;;;;;;;;;;;;;15.03;77.76;101947.56;5051825;28;20025;-76
2022/08/28 01:29:07;;;;;;;26.40;4.55;;;;;;;15.00;77.84;101952.53;5050995;28;19909;-77
2022/08/28 01:31:33;;;;;;;23.33;4.03;;;;;;;15.00;78.17;101947.94;5033229;28;20032;-77
2022/08/28 01:33:59;;;;;;;22.83;4.70;;;;;;;14.98;78.30;101941.88;5051579;28;20396;-76
2022/08/28 01:36:25;;;;;;;22.70;4.82;;;;;;;14.95;78.40;101947.66;5051265;28;20480;-74
2022/08/28 01:39:02;;;;;;;13.20;4.50;;;;;;;14.89;78.77;101942.97;5051014;28;20120;-75
2022/08/28 01:41:28;;;;;;;19.98;4.13;;;;;;;14.92;78.87;101939.91;5033142;28;20543;-75
2022/08/28 01:43:54;;;;;;;20.45;4.40;;;;;;;14.88;78.77;101944.00;5052316;28;20104;-75
2022/08/28 01:46:19;;;;;;;25.90;4.53;;;;;;;14.92;78.98;101950.75;5052620;28;20052;-76
2022/08/28 01:48:45;;;;;;;17.50;4.70;;;;;;;14.91;78.96;101951.78;5054728;28;20493;-76
2022/08/28 01:51:11;;;;;;;20.95;4.90;;;;;;;14.88;79.17;101947.56;5055003;28;20446;-76
2022/08/28 01:53:40;;;;;;;27.65;4.90;;;;;;;14.88;79.24;101954.84;5055370;28;20074;-76
2022/08/28 01:56:10;;;;;;;32.90;4.53;;;;;;;14.87;79.24;101953.16;5055885;28;20028;-75
2022/08/28 01:58:37;;;;;;;14.85;4.15;;;;;;;14.85;79.43;101952.50;5055199;28;20078;-76
2022/08/28 02:01:02;;;;;;;29.13;4.78;;;;;;;14.80;79.71;101955.78;5054776;28;20036;-77
2022/08/28 02:03:27;;;;;;;23.63;4.43;;;;;;;14.83;79.92;101954.56;5036640;28;20029;-76
2022/08/28 02:05:53;;;;;;;23.52;4.47;;;;;;;14.82;79.92;101958.28;5054755;28;20021;-75
2022/08/28 02:08:19;;;;;;;22.58;4.30;;;;;;;14.80;79.67;101955.78;5055629;28;20024;-75
2022/08/28 02:10:44;;;;;;;30.30;5.10;;;;;;;14.81;79.75;101951.19;5055545;28;20641;-75
2022/08/28 02:13:11;;;;;;;24.75;5.13;;;;;;;14.73;80.08;101952.09;5054722;28;20112;-76
2022/08/28 02:15:38;;;;;;;17.67;3.67;;;;;;;14.75;80.17;101963.59;5054486;28;20028;-74
2022/08/28 02:18:04;;;;;;;24.00;3.90;;;;;;;14.74;80.24;101963.78;5055437;28;20472;-76
2022/08/28 02:20:32;;;;;;;24.05;4.57;;;;;;;14.67;80.35;101963.66;5055573;28;20025;-75
2022/08/28 02:22:57;;;;;;;28.98;4.35;;;;;;;14.68;80.51;101971.59;5036816;28;20032;-76
2022/08/28 02:25:23;;;;;;;25.42;5.22;;;;;;;14.69;80.19;101970.59;5054381;28;20028;-75
2022/08/28 02:27:49;;;;;;;28.38;4.35;;;;;;;14.71;80.31;101978.53;5054029;28;20056;-76
2022/08/28 02:30:15;;;;;;;20.42;4.22;;;;;;;14.69;80.56;101973.31;5035986;28;20583;-75
2022/08/28 02:32:41;;;;;;;32.45;4.53;;;;;;;14.66;80.72;101970.09;5054258;28;20025;-75
2022/08/28 02:35:08;;;;;;;20.90;4.00;;;;;;;14.65;80.67;101977.38;5053945;28;20021;-76
2022/08/28 02:37:33;;;;;;;21.40;3.97;;;;;;;14.65;80.85;101969.25;5054589;28;20444;-74
2022/08/28 02:39:59;;;;;;;21.30;4.45;;;;;;;14.66;80.82;101970.94;5021462;28;20033;-76
2022/08/28 02:42:25;;;;;;;27.98;4.75;;;;;;;14.63;80.81;101971.31;5058895;28;20025;-76
2022/08/28 02:44:50;;;;;;;16.05;3.58;;;;;;;14.60;80.92;101968.97;5056396;28;20380;-77
2022/08/28 02:47:17;;;;;;;18.75;4.25;;;;;;;14.65;80.76;101966.56;5055457;28;20087;-76
2022/08/28 02:49:43;;;;;;;21.85;4.10;;;;;;;14.62;80.81;101975.03;5056414;28;20021;-76
2022/08/28 02:52:08;;;;;;;22.25;3.75;;;;;;;14.61;80.94;101973.38;5056270;28;20148;-76
2022/08/28 02:54:34;;;;;;;30.90;4.63;;;;;;;14.61;81.21;101977.94;5055846;28;20028;-76
2022/08/28 02:57:00;;;;;;;16.08;4.00;;;;;;;14.65;81.06;101976.56;5055056;28;20021;-76
2022/08/28 02:59:25;;;;;;;18.17;4.20;;;;;;;14.61;81.03;101981.50;5053627;28;20037;-78
2022/08/28 03:01:50;;;;;;;18.42;4.13;;;;;;;14.62;81.15;101980.47;5053902;28;20135;-76
2022/08/28 03:04:16;;;;;;;24.45;4.05;;;;;;;14.62;81.24;101975.03;5053990;28;20017;-76
2022/08/28 03:06:42;;;;;;;18.58;3.97;;;;;;;14.60;81.22;101981.66;5037126;28;20396;-76
2022/08/28 03:09:07;;;;;;;26.25;4.68;;;;;;;14.61;81.12;101976.09;5035566;28;20041;-77
2022/08/28 03:11:32;;;;;;;16.05;3.30;;;;;;;14.59;81.07;101980.00;5053344;28;20107;-76
2022/08/28 03:14:00;;;;;;;18.20;4.63;;;;;;;14.62;81.12;101985.88;5053351;28;20114;-76
2022/08/28 03:16:26;;;;;;;22.35;4.63;;;;;;;14.66;80.80;101984.47;5053499;28;20021;-76
2022/08/28 03:18:51;;;;;;;27.15;4.55;;;;;;;14.60;80.86;101981.66;5053252;28;20027;-76
2022/08/28 03:21:17;;;;;;;18.27;4.38;;;;;;;14.61;81.14;101984.22;5053175;28;20033;-76
2022/08/28 03:23:42;;;;;;;21.63;4.10;;;;;;;14.59;81.25;101991.66;5035539;28;20044;-77
2022/08/28 03:26:14;;;;;;;17.52;3.90;;;;;;;14.65;81.03;101980.09;5053087;28;20108;-77
2022/08/28 03:28:42;;;;;;;20.48;4.85;;;;;;;14.69;81.02;101981.44;5053154;28;20021;-77
2022/08/28 03:31:12;;;;;;;20.50;4.22;;;;;;;14.73;80.85;101991.91;5052966;28;20445;-77
2022/08/28 03:33:37;;;;;;;22.55;4.78;;;;;;;14.76;80.72;101986.13;5052878;28;20077;-77
2022/08/28 03:36:03;;;;;;;16.55;3.80;;;;;;;14.76;80.80;101986.13;5052938;28;20112;-75
2022/08/28 03:38:28;;;;;;;21.25;3.90;;;;;;;14.80;80.58;101988.28;5052495;28;20401;-77
2022/08/28 03:40:54;;;;;;;19.63;3.80;;;;;;;14.81;80.46;101983.72;5052452;28;20025;-76
2022/08/28 03:43:21;;;;;;;15.65;3.38;;;;;;;14.83;80.24;101989.78;5052676;28;20093;-76
2022/08/28 03:45:56;;;;;;;22.20;4.40;;;;;;;14.85;79.96;101980.47;5034678;28;20072;-77
2022/08/28 03:48:23;;;;;;;27.38;5.45;;;;;;;14.85;79.73;101991.31;5052517;28;20025;-76
2022/08/28 03:50:49;;;;;;;27.52;4.32;;;;;;;14.87;79.95;101988.38;5035285;28;20025;-76
2022/08/28 03:53:14;;;;;;;21.67;4.03;;;;;;;14.83;79.80;102001.47;5053970;28;20028;-76
2022/08/28 03:55:41;;;;;;;19.35;4.53;;;;;;;14.81;80.23;101999.97;5053975;28;20029;-76
2022/08/28 03:58:07;;;;;;;17.33;3.47;;;;;;;14.81;80.04;101994.56;5053357;28;20029;-76
2022/08/28 04:00:33;;;;;;;26.77;4.75;;;;;;;14.81;80.10;101992.69;5034740;28;20047;-75
2022/08/28 04:02:59;;;;;;;15.07;3.83;;;;;;;14.74;80.49;101999.00;5052862;28;20025;-75
2022/08/28 04:05:24;;;;;;;21.45;4.13;;;;;;;14.72;80.81;102001.91;5052621;28;20029;-76
2022/08/28 04:07:51;;;;;;;29.38;3.80;;;;;;;14.72;81.03;102001.91;5052680;28;20081;-75
2022/08/28 04:10:18;;;;;;;24.60;4.70;;;;;;;14.75;81.12;102001.53;5051550;28;20086;-75
2022/08/28 04:12:43;;;;;;;29.85;5.47;;;;;;;14.83;81.08;102004.19;5023741;28;20040;-76
2022/08/28 04:15:09;;;;;;;24.48;3.35;;;;;;;14.85;80.92;102006.69;5053405;28;20464;-76
2022/08/28 04:17:37;;;;;;;17.35;3.55;;;;;;;14.91;80.79;102008.69;5053774;28;20035;-76
2022/08/28 04:20:03;;;;;;;26.35;4.78;;;;;;;14.94;80.58;102005.63;5060246;28;20020;-76
2022/08/28 04:22:29;;;;;;;20.75;3.97;;;;;;;15.00;80.42;102002.16;5054320;28;20055;-75
2022/08/28 04:24:54;;;;;;;21.42;4.32;;;;;;;15.06;80.13;102012.31;5052866;28;20460;-76
2022/08/28 04:27:19;;;;;;;21.50;3.65;;;;;;;15.07;79.97;102005.84;5052602;28;20091;-75
2022/08/28 04:29:45;;;;;;;27.52;5.60;;;;;;;15.14;79.80;102011.38;5034412;28;20445;-75
2022/08/28 04:32:10;;;;;;;28.67;3.80;;;;;;;15.17;79.39;102016.44;5052498;28;20480;-76
2022/08/28 04:34:36;;;;;;;22.00;3.60;;;;;;;15.18;79.28;102012.69;5052443;28;20025;-75
2022/08/28 04:37:04;;;;;;;14.35;3.38;;;;;;;15.17;79.25;102007.47;5052110;28;20017;-75
2022/08/28 04:39:30;;;;;;;25.77;3.92;;;;;;;15.18;78.99;102017.28;5018174;28;20040;-75
2022/08/28 04:41:55;;;;;;;23.02;4.22;;;;;;;15.17;79.03;102008.31;5052655;28;20035;-76
2022/08/28 04:44:21;;;;;;;30.70;4.05;;;;;;;15.14;79.16;102014.09;5042001;28;20017;-75
2022/08/28 04:46:46;;;;;;;24.85;4.00;;;;;;;15.15;79.02;102007.63;5013061;28;20065;-76
2022/08/28 04:49:14;;;;;;;27.50;3.80;;;;;;;15.19;78.84;102008.09;5030831;28;20025;-76
2022/08/28 04:51:40;;;;;;;28.33;5.27;;;;;;;15.17;79.11;102015.59;5031335;28;20026;-75
2022/08/28 04:54:06;;;;;;;15.57;3.67;;;;;;;15.17;79.19;102015.59;5013484;28;20037;-75
2022/08/28 04:56:32;;;;;;;25.63;3.70;;;;;;;15.18;78.93;102014.56;5030854;28;20034;-74
2022/08/28 04:58:59;;;;;;;20.17;4.22;;;;;;;15.17;79.01;102015.59;5027728;28;20082;-77
2022/08/28 05:01:25;;;;;;;21.17;4.47;;;;;;;15.17;79.16;102024.56;5050792;28;20032;-76
2022/08/28 05:03:54;;;;;;;20.63;3.70;;;;;;;15.17;79.02;102024.56;5032898;28;20029;-74
2022/08/28 05:06:20;;;;;;;18.65;3.63;;;;;;;15.20;78.82;102028.78;5050574;28;20472;-75
2022/08/28 05:08:46;;;;;;;20.35;4.13;;;;;;;15.24;78.68;102027.38;5050261;28;20033;-75
2022/08/28 05:11:20;;;;;;;19.45;3.53;;;;;;;15.23;78.80;102028.41;5050221;28;20036;-76
2022/08/28 05:13:46;;;;;;;21.38;3.50;;;;;;;15.31;78.71;102031.03;5050833;28;20064;-75
2022/08/28 05:16:11;;;;;;;30.83;4.50;;;;;;;15.33;78.73;102037.97;5050585;28;20025;-75
2022/08/28 05:18:37;;;;;;;19.27;4.80;;;;;;;15.41;78.37;102039.78;5032497;28;20055;-75
2022/08/28 05:21:03;;;;;;;18.17;3.72;;;;;;;15.48;78.07;102042.56;5016734;28;20043;-76
2022/08/28 05:23:29;;;;;;;15.65;3.45;;;;;;;15.52;77.85;102039.31;5057383;28;20096;-75
2022/08/28 05:25:54;;;;;;;23.08;3.60;;;;;;;15.56;77.53;102039.75;5056898;28;20123;-75
2022/08/28 05:28:20;;;;;;;21.08;4.50;;;;;;;15.58;77.53;102041.25;5039178;28;20048;-75
2022/08/28 05:30:46;;;;;;;20.88;3.50;;;;;;;15.61;77.36;102047.34;5057430;28;20029;-76
2022/08/28 05:33:13;;;;;;;14.70;3.22;;;;;;;15.68;76.95;102051.03;5039419;28;20025;-75
2022/08/28 05:35:42;;;;;;;16.38;4.10;;;;;;;15.71;76.67;102051.50;5041344;28;20070;-78
2022/08/28 05:38:07;;;;;;;14.52;3.33;;;;;;;15.77;76.34;102055.34;5040257;28;20025;-75
2022/08/28 05:40:33;;;;;;;19.02;3.15;;;;;;;15.83;75.98;102043.75;5039219;28;20107;-76
2022/08/28 05:42:58;;;;;;;20.83;3.78;;;;;;;15.89;75.92;102043.00;5043091;28;20112;-76
2022/08/28 05:45:24;;;;;;;18.88;3.25;;;;;;;15.98;75.64;102046.47;5058307;28;20037;-76
2022/08/28 05:47:50;;;;;;;19.75;3.00;;;;;;;16.14;75.22;102057.13;5039161;28;20025;-75
2022/08/28 05:50:16;;;;;;;16.00;3.17;;;;;;;16.43;74.74;102056.25;5057639;28;20025;-76
2022/08/28 05:52:42;;;;;;;18.10;3.13;;;;;;;17.15;72.87;102056.38;5057388;28;20029;-75
2022/08/28 05:55:09;;;;;;;23.08;4.07;;;;;;;17.93;69.71;102052.56;5039948;28;20029;-75
2022/08/28 05:57:34;;;;;;;20.67;3.65;;;;;;;19.06;65.76;102052.94;5059018;28;20024;-76
2022/08/28 06:00:01;;;;;;;17.17;3.05;;;;;;;19.93;62.61;102053.72;5041483;28;20354;-76
2022/08/28 06:02:26;;;;;;;12.80;3.03;;;;;;;20.97;58.90;102059.09;5040889;28;20151;-77
2022/08/28 06:04:53;;;;;;;22.67;3.53;;;;;;;21.41;56.57;102060.88;5059342;28;20387;-76
2022/08/28 06:07:18;;;;;;;15.97;3.07;;;;;;;22.18;53.64;102065.13;5058858;28;20047;-77
2022/08/28 06:09:44;;;;;;;19.88;3.22;;;;;;;22.85;50.78;102068.66;5058939;28;20291;-76
2022/08/28 06:12:10;;;;;;;20.40;3.97;;;;;;;23.04;50.60;102063.97;5058096;28;20071;-77
2022/08/28 06:14:35;;;;;;;18.48;2.80;;;;;;;23.35;49.21;102065.56;5040175;28;20151;-76
2022/08/28 06:17:01;;;;;;;14.23;3.22;;;;;;;23.87;47.88;102071.19;5039612;28;20013;-76
2022/08/28 06:19:28;;;;;;;11.40;2.97;;;;;;;23.81;47.34;102060.34;5057987;28;20021;-77
2022/08/28 06:21:56;;;;;;;21.25;3.78;;;;;;;24.05;46.79;102069.38;5058133;28;20037;-76
2022/08/28 06:24:23;;;;;;;19.63;3.80;;;;;;;24.12;47.12;102064.59;5058242;28;20051;-77
2022/08/28 06:26:48;;;;;;;19.33;4.05;;;;;;;24.31;45.97;102073.50;5049233;28;20037;-76
2022/08/28 06:29:16;;;;;;;23.42;3.63;;;;;;;24.73;45.29;102076.81;5064133;28;20073;-77
2022/08/28 06:31:41;;;;;;;21.88;4.03;;;;;;;24.37;45.55;102066.19;5059668;28;20040;-75
2022/08/28 06:34:07;;;;;;;23.67;3.40;;;;;;;23.62;47.20;102076.09;5055378;28;20036;-75
2022/08/28 06:36:34;;;;;;;13.57;3.17;;;;;;;23.53;47.31;102064.59;5037203;28;20436;-75
2022/08/28 06:39:01;;;;;;;15.77;4.00;;;;;;;22.91;49.31;102075.13;5055239;28;20017;-76
2022/08/28 06:41:28;;;;;;;24.83;4.35;;;;;;;23.41;48.67;102081.09;5020306;28;20544;-76
2022/08/28 06:43:54;;;;;;;20.35;3.95;;;;;;;24.20;46.35;102077.97;5037454;28;20510;-76
2022/08/28 06:46:20;;;;;;;22.55;3.65;;;;;;;24.68;45.73;102092.41;5036763;28;20036;-76
2022/08/28 06:48:45;;;;;;;11.43;3.30;;;;;;;24.94;44.26;102082.72;5055458;28;20035;-76
2022/08/28 06:51:11;;;;;;;16.52;4.00;;;;;;;25.14;44.19;102079.47;5036875;28;20025;-75
2022/08/28 06:53:38;;;;;;;11.98;3.13;;;;;;;26.21;41.80;102077.50;5055807;28;20103;-76
2022/08/28 06:56:18;;;;;;;12.27;3.10;;;;;;;26.66;40.17;102087.44;5057361;28;20104;-79
2022/08/28 06:58:46;;;;;;;13.35;3.17;;;;;;;26.79;39.68;102086.19;5058234;28;20032;-77
2022/08/28 07:01:24;;;;;;;14.32;3.45;;;;;;;26.84;39.24;102083.47;5060153;28;20032;-77
2022/08/28 07:03:52;;;;;;;15.15;3.08;;;;;;;26.81;39.51;102095.88;5043923;28;20036;-78
2022/08/28 07:06:18;;;;;;;16.90;2.78;;;;;;;26.92;39.64;102085.75;5062702;28;20032;-77
2022/08/28 07:08:44;;;;;;;14.13;3.10;;;;;;;27.37;38.77;102087.28;5064873;28;20451;-76
2022/08/28 07:11:12;;;;;;;13.65;2.85;;;;;;;27.95;37.51;102090.16;5026374;28;20030;-78
2022/08/28 07:13:39;;;;;;;12.77;3.13;;;;;;;27.97;37.35;102083.25;5041841;28;20025;-77
2022/08/28 07:16:04;;;;;;;13.77;3.33;;;;;;;28.20;36.90;102089.44;5064254;28;20056;-77
2022/08/28 07:18:29;;;;;;;8.48;2.72;;;;;;;28.75;35.80;102090.75;5043662;28;20024;-77
2022/08/28 07:20:57;;;;;;;15.98;2.72;;;;;;;28.36;36.02;102098.66;5058585;28;20037;-77
2022/08/28 07:23:23;;;;;;;12.63;2.60;;;;;;;28.60;35.70;102104.59;5061104;28;20089;-78
2022/08/28 07:25:48;;;;;;;17.45;3.28;;;;;;;28.53;35.51;102098.47;5063157;28;20464;-76
2022/08/28 07:28:14;;;;;;;10.80;2.63;;;;;;;28.60;35.55;102108.19;5059356;28;20028;-78
2022/08/28 07:30:39;;;;;;;16.60;2.92;;;;;;;28.88;35.38;102109.63;5058578;28;20445;-77
2022/08/28 07:33:04;;;;;;;11.68;2.95;;;;;;;28.99;34.84;102109.63;5058443;28;20032;-77
2022/08/28 07:35:30;;;;;;;13.80;2.92;;;;;;;28.87;34.90;102109.91;5059222;28;20358;-78
2022/08/28 07:37:56;;;;;;;13.95;2.95;;;;;;;29.19;33.87;102119.94;5056648;28;20029;-76
2022/08/28 07:40:22;;;;;;;17.02;2.88;;;;;;;29.07;34.59;102114.66;5056788;28;20313;-77
2022/08/28 07:45:31;;;;;;;20.50;3.17;;;;;;;29.58;33.41;102122.13;5057276;28;20048;-78
2022/08/28 07:47:57;;;;;;;13.87;3.13;;;;;;;30.07;33.09;102127.03;5057354;28;20025;-78
2022/08/28 07:50:22;;;;;;;15.93;2.70;;;;;;;30.19;32.83;102130.34;5057719;28;20028;-78
2022/08/28 07:52:47;;;;;;;11.60;2.53;;;;;;;30.23;32.79;102113.94;5056136;28;20060;-77
2022/08/28 07:55:13;;;;;;;11.23;2.90;;;;;;;29.97;31.63;102120.41;5061231;28;20048;-76
2022/08/28 07:57:40;;;;;;;12.27;2.70;;;;;;;29.97;31.63;102128.75;5060113;28;20032;-77
2022/08/28 08:00:06;;;;;;;11.18;2.83;;;;;;;29.72;33.03;102128.78;5056176;28;20040;-79
2022/08/28 08:02:31;;;;;;;16.48;2.83;;;;;;;29.94;32.99;102120.97;5038972;28;20049;-77
2022/08/28 08:04:57;;;;;;;11.90;3.10;;;;;;;30.16;32.72;102125.34;5055930;28;20063;-77
2022/08/28 08:07:22;;;;;;;29.67;3.13;;;;;;;30.42;32.64;102128.06;5056502;28;20080;-79
2022/08/28 08:09:47;;;;;;;12.87;2.77;;;;;;;30.55;31.18;102127.44;5066721;28;20059;-77
2022/08/28 08:12:14;;;;;;;12.02;2.20;;;;;;;30.68;31.18;102126.81;5069798;28;20116;-77
2022/08/28 08:14:41;;;;;;;12.30;2.40;;;;;;;30.31;32.35;102132.84;5060269;28;20028;-77
2022/08/28 08:17:06;;;;;;;;;;;;;;;30.55;32.21;102135.78;5056557;28;20128;-77
2022/08/28 08:19:32;;;;;;;13.20;2.43;;;;;;;30.59;30.84;102136.84;5069329;28;20050;-78
2022/08/28 08:21:57;;;;;;;14.20;2.70;;;;;;;30.25;31.66;102134.78;5049681;28;20040;-77
2022/08/28 08:24:24;;;;;;;10.13;2.57;;;;;;;30.30;31.46;102140.31;5069681;28;20065;-78
2022/08/28 08:26:51;;;;;;;9.25;2.33;;;;;;;31.18;30.03;102147.06;5068710;28;20238;-77
2022/08/28 08:29:16;;;;;;;16.92;2.40;;;;;;;30.96;29.67;102143.88;5067006;28;20021;-77
2022/08/28 08:31:42;;;;;;;16.67;3.20;;;;;;;30.46;30.75;102141.06;5058102;28;20415;-76
2022/08/28 08:34:08;;;;;;;12.53;2.60;;;;;;;29.77;32.86;102139.88;5055633;28;20044;-76
2022/08/28 08:36:36;;;;;;;8.77;2.53;;;;;;;30.17;31.27;102144.50;5063239;28;20057;-77
2022/08/28 08:39:03;;;;;;;11.93;2.55;;;;;;;30.27;31.37;102143.66;5062876;28;20456;-78
2022/08/28 08:41:32;;;;;;;12.88;2.78;;;;;;;30.84;30.52;102145.06;5057943;28;20096;-78
2022/08/28 08:44:08;;;;;;;10.80;2.40;;;;;;;30.84;29.30;102142.28;5059869;28;20056;-77
2022/08/28 08:46:40;;;;;;;12.82;2.42;;;;;;;30.60;29.58;102144.09;5039962;28;20021;-78
2022/08/28 08:49:14;;;;;;;13.38;2.80;;;;;;;30.36;30.30;102141.97;5035788;28;20030;-76
2022/08/28 08:51:43;;;;;;;17.13;2.88;;;;;;;30.59;29.65;102150.75;5025160;28;20031;-77
2022/08/28 08:54:13;;;;;;;14.23;2.67;;;;;;;30.28;30.91;102139.78;5057315;28;20038;-77
2022/08/28 08:56:40;;;;;;;13.60;2.42;;;;;;;30.01;30.40;102144.84;5039720;28;20024;-75
2022/08/28 08:59:10;;;;;;;8.25;2.58;;;;;;;29.80;30.94;102144.03;5037059;28;20060;-77
2022/08/28 09:01:43;;;;;;;7.47;2.40;;;;;;;29.20;32.14;102130.75;5035206;28;20025;-77
2022/08/28 09:04:38;;;;;;;11.75;2.33;;;;;;;29.30;32.59;102139.06;5053131;28;20047;-78
2022/08/28 09:07:12;;;;;;;9.57;2.38;;;;;;;29.39;31.97;102132.97;5053539;28;20104;-76
2022/08/28 09:09:51;;;;;;;13.20;3.00;;;;;;;29.00;32.25;102131.53;5035395;28;20514;-77
2022/08/28 09:12:22;;;;;;;10.73;2.40;;;;;;;29.14;32.30;102142.94;5053397;28;20063;-77
2022/08/28 09:15:08;;;;;;;13.70;2.58;;;;;;;29.43;32.42;102134.06;5053601;28;20476;-76
2022/08/28 09:17:54;;;;;;;;;;;;;;;29.09;32.35;102143.75;5037883;28;20032;-77
2022/08/28 09:20:22;;;;;;;7.03;2.47;;;;;;;28.29;33.04;102134.91;5053085;28;19967;-77
2022/08/28 09:22:48;;;;;;;11.82;2.40;;;;;;;27.12;35.08;102135.69;5054084;28;20390;-76
2022/08/28 09:25:51;;;;;;;8.68;2.10;;;;;;;25.73;37.69;102150.75;5033744;28;20059;-76
2022/08/28 09:28:21;;;;;;;10.90;2.53;;;;;;;24.75;40.45;102134.41;5051943;28;20048;-75
2022/08/28 09:31:05;;;;;;;8.85;2.35;;;;;;;24.52;41.75;102124.31;5052029;28;20036;-75
2022/08/28 09:33:41;;;;;;;11.15;2.55;;;;;;;25.32;39.95;102134.34;5052631;28;20064;-76
2022/08/28 09:36:31;;;;;;;10.15;2.30;;;;;;;25.55;40.18;102127.84;5052291;28;20048;-75
2022/08/28 09:39:18;;;;;;;13.02;2.67;;;;;;;25.43;39.60;102123.50;5049520;28;20037;-76
2022/08/28 09:45:12;;;;;;;9.38;2.08;;;;;;;24.33;42.52;102126.38;5031610;28;20090;-77
2022/08/28 09:47:57;;;;;;;12.80;2.88;;;;;;;24.13;43.05;102126.75;5032144;28;20021;-76
2022/08/28 09:50:38;;;;;;;6.72;2.25;;;;;;;24.23;42.74;102115.16;5030034;28;20040;-77
2022/08/28 09:53:09;;;;;;;11.00;2.33;;;;;;;24.13;43.00;102124.00;5051821;28;20032;-76
2022/08/28 09:55:42;;;;;;;7.72;2.30;;;;;;;23.69;43.04;102125.44;5053401;28;20095;-77
2022/08/28 09:58:08;;;;;;;15.25;2.40;;;;;;;23.23;44.08;102125.97;5051746;28;20108;-77
2022/08/28 10:00:36;;;;;;;14.13;2.38;;;;;;;23.26;45.42;102127.41;5052053;28;20071;-76
2022/08/28 10:03:13;;;;;;;12.40;2.47;;;;;;;23.86;44.17;102115.44;5033662;28;20025;-77
2022/08/28 10:05:44;;;;;;;10.63;3.60;;;;;;;25.02;41.71;102117.28;5051638;28;20409;-77
2022/08/28 10:08:36;;;;;;;10.00;2.50;;;;;;;25.57;39.04;102125.69;5036527;28;20056;-77
2022/08/28 10:11:15;;;;;;;15.50;7.10;;;;;;;25.38;39.85;102132.50;5031569;28;20088;-76
2022/08/28 10:13:52;;;;;;;6.00;1.95;;;;;;;24.96;41.08;102119.94;5039654;28;20593;-77
2022/08/28 10:16:34;;;;;;;15.38;3.03;;;;;;;24.38;41.73;102122.88;5055741;28;20020;-76
2022/08/28 10:19:12;;;;;;;12.98;2.95;;;;;;;23.89;42.24;102114.94;5039221;28;20358;-76
2022/08/28 10:21:44;;;;;;;11.43;2.40;;;;;;;24.02;42.85;102111.94;5037887;28;20025;-76
2022/08/28 10:24:15;;;;;;;11.43;2.28;;;;;;;23.95;42.59;102121.41;5037839;28;20067;-76
2022/08/28 10:27:01;;;;;;;11.20;2.40;;;;;;;23.77;42.75;102123.19;5057035;28;20033;-77
2022/08/28 10:29:47;;;;;;;14.98;2.70;;;;;;;23.49;43.53;102125.81;5038366;28;20115;-77
2022/08/28 10:32:24;;;;;;;12.18;2.55;;;;;;;23.31;44.19;102119.31;5054203;28;20031;-76
2022/08/28 10:34:57;;;;;;;12.18;2.65;;;;;;;23.55;45.38;102119.34;5057567;28;20032;-76
2022/08/28 10:37:41;;;;;;;13.57;2.88;;;;;;;23.61;46.05;102119.22;5037852;28;20053;-76
2022/08/28 10:40:15;;;;;;;17.17;2.75;;;;;;;23.51;45.12;102129.94;5054849;28;20056;-76
2022/08/28 10:42:45;;;;;;;11.98;3.15;;;;;;;23.22;45.61;102128.94;5055101;28;20032;-75
2022/08/28 10:45:18;;;;;;;13.13;3.05;;;;;;;23.08;46.50;102135.72;5021561;28;20040;-75
2022/08/28 10:47:48;;;;;;;12.23;2.78;;;;;;;22.96;46.96;102133.78;5038402;28;20025;-76
2022/08/28 10:50:41;;;;;;;11.82;2.83;;;;;;;23.25;46.76;102131.25;5037406;28;20530;-77
2022/08/28 10:53:10;;;;;;;10.95;2.50;;;;;;;23.68;45.76;102130.09;5047344;28;20064;-76
2022/08/28 10:55:48;;;;;;;8.18;2.30;;;;;;;24.74;43.53;102138.22;5037282;28;20033;-78
2022/08/28 10:58:14;;;;;;;14.68;3.10;;;;;;;25.16;41.86;102133.25;5038252;28;20357;-75
2022/08/28 11:00:42;;;;;;;16.10;2.75;;;;;;;25.56;41.18;102143.28;5055655;28;20028;-77
2022/08/28 11:03:17;;;;;;;16.25;2.75;;;;;;;26.27;38.24;102139.94;5037733;28;20029;-77
2022/08/28 11:05:51;;;;;;;12.98;2.83;;;;;;;26.13;38.34;102138.66;5058697;28;20033;-76
2022/08/28 11:08:44;;;;;;;12.50;2.90;;;;;;;26.30;38.03;102138.59;5037856;28;20059;-77
2022/08/28 11:11:13;;;;;;;13.70;2.97;;;;;;;26.11;37.56;102138.06;5015318;28;20038;-77
2022/08/28 11:13:58;;;;;;;14.52;2.40;;;;;;;26.60;37.13;102135.44;5019401;28;20044;-76
2022/08/28 11:16:26;;;;;;;8.93;2.80;;;;;;;26.84;37.23;102139.56;5039223;28;20026;-75
2022/08/28 11:19:16;;;;;;;10.98;2.63;;;;;;;27.92;35.46;102138.56;5036471;28;20029;-78
2022/08/28 11:21:59;;;;;;;12.98;2.33;;;;;;;27.73;35.56;102143.69;5034598;28;20041;-78
2022/08/28 11:24:31;;;;;;;11.77;2.75;;;;;;;26.76;37.55;102130.91;5036603;28;20045;-77
2022/08/28 11:27:05;;;;;;;11.32;2.88;;;;;;;25.73;40.61;102131.44;5039979;28;20135;-76
2022/08/28 11:30:01;;;;;;;14.60;2.67;;;;;;;25.43;41.11;102129.84;5020356;28;20112;-76
2022/08/28 11:32:37;;;;;;;13.27;3.40;;;;;;;24.89;42.38;102134.94;5040520;28;20032;-76
2022/08/28 11:35:11;;;;;;;14.02;2.55;;;;;;;24.64;42.79;102133.34;5036855;28;20128;-77